createdAt,value
2023-05-10T00:01:01.325Z,101399.66
2023-05-10T00:03:28.445Z,101404.09
2023-05-10T00:05:55.526Z,101393.38
2023-05-10T00:08:22.740Z,101384.53
2023-05-10T00:10:50.755Z,101397.59
2023-05-10T00:13:17.920Z,101398.84
2023-05-10T00:15:44.938Z,101378.81
2023-05-10T00:18:12.381Z,101403.28
2023-05-10T00:20:39.368Z,101385.00
2023-05-10T00:23:06.579Z,101395.72
2023-05-10T00:25:33.694Z,101398.50
2023-05-10T00:28:02.602Z,101390.00
2023-05-10T00:30:29.738Z,101380.44
2023-05-10T00:32:56.888Z,101378.94
2023-05-10T00:35:24.203Z,101380.44
2023-05-10T00:37:51.358Z,101358.78
2023-05-10T00:40:18.815Z,101373.56
2023-05-10T00:42:45.959Z,101383.69
2023-05-10T00:45:13.088Z,101370.44
2023-05-10T00:47:41.092Z,101375.91
2023-05-10T00:50:10.149Z,101361.25
2023-05-10T00:52:37.375Z,101379.50
2023-05-10T00:55:05.840Z,101358.91
2023-05-10T00:57:33.050Z,101364.72
2023-05-10T01:00:00.944Z,101359.09
2023-05-10T01:02:28.649Z,101341.38
2023-05-10T01:04:56.526Z,101359.72
2023-05-10T01:07:23.555Z,101333.69
2023-05-10T01:09:50.642Z,101334.41
2023-05-10T01:12:17.845Z,101346.41
2023-05-10T01:14:45.320Z,101363.56
2023-05-10T01:17:14.009Z,101335.09
2023-05-10T01:19:41.603Z,101349.91
2023-05-10T01:22:11.694Z,101346.63
2023-05-10T01:24:48.686Z,101342.53
2023-05-10T01:27:40.307Z,101342.31
2023-05-10T01:30:24.277Z,101335.09
2023-05-10T01:33:16.201Z,101344.78
2023-05-10T01:35:54.781Z,101332.28
2023-05-10T01:38:29.991Z,101337.88
2023-05-10T01:41:25.136Z,101337.53
2023-05-10T01:44:41.142Z,101336.22
2023-05-10T01:47:30.135Z,101331.34
2023-05-10T01:50:01.111Z,101344.75
2023-05-10T01:52:42.334Z,101331.69
2023-05-10T01:56:07.431Z,101322.50
